Time;durP1;ratioP1;P1;durP2;ratioP2;P2;SDS_P1;SDS_P2;PMS_P1;PMS_P2;Temp;Humidity;BMP_temperature;BMP_pressure;BME280_temperature;BME280_humidity;BME280_pressure;Samples;Min_cycle;Max_cycle;Signal;HPM_P1;HPM_P2
2023/02/07 00:00:05;;;;;;;;;;;2.60;99.90;3.30;100661.00;;;;341703;28;89313;-90
2023/02/07 00:00:17;;;;;;;;;;;2.60;99.90;3.30;100666.00;;;;346268;28;83564;-90
2023/02/07 00:00:29;;;;;;;;;;;2.60;99.90;3.20;100662.00;;;;341301;28;89450;-90
2023/02/07 00:00:41;;;;;;;;;;;2.60;99.90;3.10;100662.00;;;;343240;28;83603;-90
2023/02/07 00:00:56;;;;;;;;;;;2.60;99.90;3.10;100664.00;;;;343107;28;89407;-90
2023/02/07 00:01:09;;;;;;;;;;;2.60;99.90;3.20;100660.00;;;;345008;28;82370;-91
2023/02/07 00:01:22;;;;;;;;;;;2.60;99.90;3.20;100660.00;;;;343099;28;89587;-90
2023/02/07 00:01:34;;;;;;;;;;;2.60;99.90;3.20;100655.00;;;;343537;28;83378;-91
2023/02/07 00:01:46;;;;;;;;;;;2.60;99.90;3.10;100665.00;;;;343822;28;87281;-91
2023/02/07 00:01:58;;;;;;;;;;;2.60;99.90;3.00;100669.00;;;;346414;28;82483;-91
2023/02/07 00:02:10;;;;;;;;;;;2.60;99.90;3.10;100664.00;;;;341651;28;91568;-91
2023/02/07 00:02:22;;;;;;;;;;;2.60;99.90;3.10;100658.00;;;;343545;28;83501;-91
2023/02/07 00:02:34;;;;;;;;;;;2.60;99.90;3.10;100661.00;;;;343470;28;86672;-90
2023/02/07 00:02:46;;;;;;;;;;;2.60;99.90;3.10;100656.00;;;;343508;28;82647;-91
2023/02/07 00:02:58;;;;;;;;;;;2.50;99.90;3.20;100654.00;;;;341908;28;89577;-91
2023/02/07 00:03:10;;;;;;;;;;;2.60;99.90;3.10;100655.00;;;;344684;28;82523;-91
2023/02/07 00:03:22;;;;;;;;;;;2.50;99.90;3.10;100657.00;;;;341966;28;86561;-91
2023/02/07 00:03:34;;;;;;;;;;;2.50;99.90;3.10;100648.00;;;;344538;28;83436;-91
2023/02/07 00:03:46;;;;;;;;;;;2.50;99.90;3.20;100663.00;;;;344333;28;90510;-91
2023/02/07 00:03:57;;;;;;;;;;;2.60;99.90;3.20;100651.00;;;;342086;28;84122;-91
2023/02/07 00:04:09;;;;;;;;;;;2.50;99.90;3.10;100657.00;;;;342454;28;90876;-90
2023/02/07 00:04:21;;;;;;;;;;;2.60;99.90;3.10;100653.00;;;;342086;28;83583;-91
2023/02/07 00:04:33;;;;;;;;;;;2.50;99.90;3.10;100655.00;;;;341698;28;89160;-91
2023/02/07 00:04:45;;;;;;;;;;;2.60;99.90;3.10;100647.00;;;;342037;28;82605;-91
2023/02/07 00:04:57;;;;;;;;;;;2.50;99.90;3.10;100646.00;;;;343081;28;88670;-92
2023/02/07 00:05:09;;;;;;;;;;;2.50;99.90;3.10;100651.00;;;;343414;28;83412;-91
2023/02/07 00:05:21;;;;;;;;;;;2.50;99.90;3.10;100655.00;;;;340070;28;88175;-91
2023/02/07 00:05:35;;;;;;;;;;;2.50;99.90;3.00;100655.00;;;;343425;28;83466;-91
2023/02/07 00:05:47;;;;;;;;;;;2.50;99.90;3.00;100650.00;;;;344810;28;88748;-91
2023/02/07 00:06:10;;;;;;;;;;;2.50;99.90;3.00;100649.00;;;;342664;28;82416;-91
2023/02/07 00:06:32;;;;;;;;;;;2.50;99.90;3.00;100646.00;;;;341749;28;87227;-92
2023/02/07 00:06:44;;;;;;;;;;;2.50;99.90;3.00;100650.00;;;;345102;28;82281;-91
2023/02/07 00:06:56;;;;;;;;;;;2.40;99.90;3.10;100645.00;;;;344290;28;91810;-91
2023/02/07 00:07:08;;;;;;;;;;;2.50;99.90;3.10;100638.00;;;;343442;28;83499;-91
2023/02/07 00:07:20;;;;;;;;;;;2.50;99.90;3.10;100647.00;;;;344483;28;89158;-91
2023/02/07 00:07:31;;;;;;;;;;;2.50;99.90;3.10;100644.00;;;;343672;28;83460;-91
2023/02/07 00:07:43;;;;;;;;;;;2.50;99.90;3.10;100642.00;;;;343171;28;88227;-92
2023/02/07 00:07:55;;;;;;;;;;;2.50;99.90;3.10;100639.00;;;;344807;28;83509;-91
2023/02/07 00:08:07;;;;;;;;;;;2.50;99.90;3.00;100647.00;;;;344936;28;87917;-91
2023/02/07 00:08:19;;;;;;;;;;;2.50;99.90;3.00;100646.00;;;;343587;28;83295;-91
2023/02/07 00:08:31;;;;;;;;;;;2.50;99.90;3.10;100654.00;;;;344651;28;89371;-91
2023/02/07 00:08:43;;;;;;;;;;;2.40;99.90;3.10;100647.00;;;;344908;28;82362;-91
2023/02/07 00:08:55;;;;;;;;;;;2.50;99.90;3.20;100640.00;;;;341741;28;88291;-91
2023/02/07 00:09:07;;;;;;;;;;;2.40;99.90;3.10;100650.00;;;;343334;28;83520;-91
2023/02/07 00:09:19;;;;;;;;;;;2.50;99.90;3.10;100652.00;;;;343998;28;88171;-91
2023/02/07 00:09:30;;;;;;;;;;;2.50;99.90;3.10;100647.00;;;;344563;28;83551;-90
2023/02/07 00:09:42;;;;;;;;;;;2.40;99.90;3.00;100650.00;;;;343225;28;87664;-91
2023/02/07 00:09:56;;;;;;;;;;;2.50;99.90;3.00;100645.00;;;;342570;28;82511;-91
2023/02/07 00:10:08;;;;;;;;;;;2.40;99.90;3.00;100645.00;;;;343012;28;88295;-91
2023/02/07 00:10:20;;;;;;;;;;;2.40;99.90;3.00;100644.00;;;;343698;28;82228;-91
2023/02/07 00:10:33;;;;;;;;;;;2.40;99.90;3.10;100650.00;;;;343087;28;89334;-91
2023/02/07 00:10:44;;;;;;;;;;;2.40;99.90;3.00;100645.00;;;;341904;28;84241;-91
2023/02/07 00:10:56;;;;;;;;;;;2.40;99.90;3.10;100650.00;;;;342930;28;89492;-91
2023/02/07 00:11:10;;;;;;;;;;;2.40;99.90;3.00;100650.00;;;;343864;28;82501;-91
2023/02/07 00:11:22;;;;;;;;;;;2.40;99.90;3.00;100650.00;;;;344378;28;88967;-91
2023/02/07 00:11:34;;;;;;;;;;;2.40;99.90;3.10;100649.00;;;;342018;28;82636;-92
2023/02/07 00:11:46;;;;;;;;;;;2.40;99.90;3.10;100640.00;;;;341746;28;88249;-91
2023/02/07 00:11:58;;;;;;;;;;;2.40;99.90;3.10;100640.00;;;;343514;28;83175;-91
2023/02/07 00:12:10;;;;;;;;;;;2.40;99.90;3.00;100644.00;;;;341449;28;89117;-90
2023/02/07 00:12:22;;;;;;;;;;;2.50;99.90;3.10;100639.00;;;;343566;28;83570;-91
2023/02/07 00:12:34;;;;;;;;;;;2.40;99.90;3.10;100647.00;;;;342579;28;88164;-91
2023/02/07 00:12:46;;;;;;;;;;;2.50;99.90;3.10;100639.00;;;;342351;28;83269;-91
2023/02/07 00:12:57;;;;;;;;;;;2.40;99.90;3.10;100648.00;;;;343831;28;88230;-91
2023/02/07 00:13:10;;;;;;;;;;;2.50;99.90;3.00;100647.00;;;;345219;28;82464;-91
2023/02/07 00:13:22;;;;;;;;;;;2.40;99.90;3.10;100644.00;;;;342675;28;88570;-91
2023/02/07 00:13:34;;;;;;;;;;;2.50;99.90;3.00;100649.00;;;;341855;28;83547;-91
2023/02/07 00:13:49;;;;;;;;;;;2.50;99.90;2.90;100645.00;;;;341707;28;88130;-91
2023/02/07 00:14:01;;;;;;;;;;;2.40;99.90;2.90;100638.00;;;;342382;28;83328;-91
2023/02/07 00:14:13;;;;;;;;;;;2.40;99.90;3.00;100640.00;;;;342607;28;87877;-91
2023/02/07 00:14:24;;;;;;;;;;;2.40;99.90;3.00;100645.00;;;;341955;28;83407;-91
2023/02/07 00:14:36;;;;;;;;;;;2.40;99.90;3.00;100638.00;;;;341456;28;89987;-90
2023/02/07 00:14:48;;;;;;;;;;;2.40;99.90;2.90;100637.00;;;;343471;28;83332;-91
2023/02/07 00:15:00;;;;;;;;;;;2.40;99.90;2.90;100645.00;;;;344723;28;88307;-90
2023/02/07 00:15:12;;;;;;;;;;;2.40;99.90;2.90;100638.00;;;;344795;28;83352;-91
2023/02/07 00:15:23;;;;;;;;;;;2.40;99.90;2.90;100631.00;;;;341789;28;88356;-91
2023/02/07 00:15:35;;;;;;;;;;;2.40;99.90;3.00;100644.00;;;;342116;28;82549;-90
2023/02/07 00:15:50;;;;;;;;;;;2.40;99.90;3.00;100640.00;;;;343168;28;87616;-91
2023/02/07 00:16:05;;;;;;;;;;;2.40;99.90;3.00;100645.00;;;;343443;28;83329;-91
2023/02/07 00:16:17;;;;;;;;;;;2.40;99.90;2.90;100642.00;;;;340357;28;89938;-91
2023/02/07 00:16:28;;;;;;;;;;;2.40;99.90;2.80;100625.00;;;;342223;28;84562;-91
2023/02/07 00:16:40;;;;;;;;;;;2.30;99.90;2.90;100638.00;;;;342921;28;89226;-90
2023/02/07 00:16:52;;;;;;;;;;;2.40;99.90;2.80;100633.00;;;;342133;28;83382;-91
2023/02/07 00:17:04;;;;;;;;;;;2.30;99.90;2.80;100636.00;;;;342973;28;87244;-91
2023/02/07 00:17:16;;;;;;;;;;;2.30;99.90;2.90;100624.00;;;;344705;28;82607;-90
2023/02/07 00:17:28;;;;;;;;;;;2.30;99.90;2.90;100636.00;;;;344542;28;88465;-91
2023/02/07 00:17:40;;;;;;;;;;;2.30;99.90;3.00;100633.00;;;;342182;28;82380;-91
2023/02/07 00:17:51;;;;;;;;;;;2.30;99.90;2.90;100639.00;;;;344634;28;86988;-90
2023/02/07 00:18:03;;;;;;;;;;;2.30;99.90;2.90;100639.00;;;;343603;28;83356;-91
2023/02/07 00:18:15;;;;;;;;;;;2.30;99.90;2.90;100641.00;;;;342785;28;88462;-90
2023/02/07 00:18:27;;;;;;;;;;;2.30;99.90;3.00;100631.00;;;;342268;28;82403;-91
2023/02/07 00:18:39;;;;;;;;;;;2.30;99.90;2.90;100640.00;;;;342831;28;91552;-91
2023/02/07 00:18:51;;;;;;;;;;;2.30;99.90;3.00;100627.00;;;;342122;28;82457;-90
2023/02/07 00:19:03;;;;;;;;;;;2.30;99.90;3.00;100640.00;;;;342835;28;90438;-91
2023/02/07 00:19:15;;;;;;;;;;;2.30;99.90;2.90;100640.00;;;;343031;28;82427;-91
2023/02/07 00:19:27;;;;;;;;;;;2.30;99.90;3.00;100642.00;;;;344368;28;89760;-91
2023/02/07 00:19:39;;;;;;;;;;;2.30;99.90;3.00;100636.00;;;;345093;28;83591;-91
2023/02/07 00:19:51;;;;;;;;;;;2.30;99.90;2.90;100629.00;;;;342663;28;88066;-92
2023/02/07 00:20:04;;;;;;;;;;;2.30;99.90;2.90;100640.00;;;;343520;28;83380;-92
2023/02/07 00:20:16;;;;;;;;;;;2.30;99.90;2.90;100634.00;;;;340333;28;89746;-91
2023/02/07 00:20:28;;;;;;;;;;;2.30;99.90;2.90;100635.00;;;;342094;28;82549;-91
2023/02/07 00:20:40;;;;;;;;;;;2.30;99.90;3.00;100641.00;;;;341336;28;89062;-92
2023/02/07 00:21:03;;;;;;;;;;;2.30;99.90;3.00;100639.00;;;;342139;28;82443;-91
2023/02/07 00:21:16;;;;;;;;;;;2.30;99.90;3.00;100642.00;;;;341691;28;89355;-91
2023/02/07 00:21:28;;;;;;;;;;;2.30;99.90;3.00;100640.00;;;;343406;28;82504;-91
2023/02/07 00:21:40;;;;;;;;;;;2.40;99.90;3.00;100634.00;;;;344442;28;89115;-91
2023/02/07 00:21:52;;;;;;;;;;;2.30;99.90;3.00;100641.00;;;;343551;28;83030;-91
2023/02/07 00:22:03;;;;;;;;;;;2.40;99.90;3.10;100645.00;;;;344178;28;86745;-90
2023/02/07 00:22:15;;;;;;;;;;;2.40;99.90;3.00;100644.00;;;;344798;28;83394;-91
2023/02/07 00:22:27;;;;;;;;;;;2.40;99.90;3.00;100635.00;;;;342460;28;86852;-91
2023/02/07 00:22:39;;;;;;;;;;;2.40;99.90;3.00;100654.00;;;;343530;28;83346;-91
2023/02/07 00:22:51;;;;;;;;;;;2.30;99.90;3.00;100646.00;;;;342974;28;90494;-91
2023/02/07 00:23:03;;;;;;;;;;;2.40;99.90;3.00;100654.00;;;;341904;28;82576;-90
2023/02/07 00:23:15;;;;;;;;;;;2.40;99.90;3.00;100651.00;;;;341761;28;89328;-91
2023/02/07 00:23:27;;;;;;;;;;;2.40;99.90;3.00;100652.00;;;;343478;28;83511;-90
2023/02/07 00:23:39;;;;;;;;;;;2.40;99.90;3.00;100648.00;;;;344672;28;89362;-91
2023/02/07 00:23:51;;;;;;;;;;;2.40;99.90;3.10;100650.00;;;;344798;28;82590;-91
2023/02/07 00:24:03;;;;;;;;;;;2.30;99.90;3.00;100637.00;;;;341677;28;89520;-90
2023/02/07 00:24:16;;;;;;;;;;;2.40;99.90;3.00;100649.00;;;;344796;28;83356;-91
2023/02/07 00:24:27;;;;;;;;;;;2.40;99.90;3.10;100651.00;;;;344452;28;89584;-91
2023/02/07 00:24:39;;;;;;;;;;;2.40;99.90;3.10;100650.00;;;;343484;28;82351;-91
2023/02/07 00:24:51;;;;;;;;;;;2.40;99.90;3.00;100649.00;;;;342654;28;90383;-91
2023/02/07 00:25:03;;;;;;;;;;;2.40;99.90;3.00;100655.00;;;;342128;28;82331;-90
2023/02/07 00:25:15;;;;;;;;;;;2.40;99.90;3.00;100653.00;;;;340408;28;87650;-91
2023/02/07 00:25:27;;;;;;;;;;;2.40;99.90;3.00;100655.00;;;;341896;28;83579;-91
2023/02/07 00:25:39;;;;;;;;;;;2.40;99.90;3.00;100654.00;;;;342828;28;88978;-91
2023/02/07 00:25:51;;;;;;;;;;;2.40;99.90;3.00;100655.00;;;;344333;28;82635;-91
2023/02/07 00:26:03;;;;;;;;;;;2.40;99.90;2.90;100652.00;;;;344402;28;88440;-91
2023/02/07 00:26:15;;;;;;;;;;;2.40;99.90;3.00;100655.00;;;;344533;28;82599;-91
2023/02/07 00:26:27;;;;;;;;;;;2.40;99.90;3.00;100653.00;;;;342744;28;89239;-91
2023/02/07 00:26:38;;;;;;;;;;;2.40;99.90;3.00;100653.00;;;;343395;28;83748;-92
2023/02/07 00:26:51;;;;;;;;;;;2.40;99.90;3.00;100651.00;;;;342990;28;87614;-91
2023/02/07 00:27:02;;;;;;;;;;;2.40;99.90;3.00;100653.00;;;;343464;28;82333;-91
2023/02/07 00:27:15;;;;;;;;;;;2.40;99.90;2.90;100653.00;;;;344244;28;90394;-91
2023/02/07 00:27:26;;;;;;;;;;;2.40;99.90;2.90;100653.00;;;;344390;28;82698;-91
2023/02/07 00:27:38;;;;;;;;;;;2.40;99.90;3.00;100655.00;;;;344327;28;88072;-92
2023/02/07 00:27:50;;;;;;;;;;;2.30;99.90;2.90;100658.00;;;;342071;28;83400;-91
2023/02/07 00:28:02;;;;;;;;;;;2.40;99.90;2.90;100659.00;;;;341789;28;86616;-92
2023/02/07 00:28:14;;;;;;;;;;;2.30;99.90;3.00;100657.00;;;;342098;28;83170;-91
2023/02/07 00:28:26;;;;;;;;;;;2.30;99.90;3.00;100656.00;;;;341559;28;88290;-91
2023/02/07 00:28:38;;;;;;;;;;;2.40;99.90;2.90;100658.00;;;;342141;28;83404;-91
2023/02/07 00:28:51;;;;;;;;;;;2.30;99.90;3.00;100656.00;;;;340276;28;90089;-91
2023/02/07 00:29:03;;;;;;;;;;;2.40;99.90;3.00;100654.00;;;;344477;28;82572;-91
2023/02/07 00:29:15;;;;;;;;;;;2.40;99.90;3.00;100656.00;;;;344399;28;88124;-91
2023/02/07 00:29:27;;;;;;;;;;;2.40;99.90;3.00;100658.00;;;;344911;28;82284;-91
2023/02/07 00:29:39;;;;;;;;;;;2.40;99.90;3.00;100650.00;;;;341625;28;89501;-91
2023/02/07 00:29:51;;;;;;;;;;;2.40;99.90;3.00;100656.00;;;;343406;28;83253;-91
2023/02/07 00:30:04;;;;;;;;;;;2.40;99.90;3.00;100655.00;;;;343116;28;88218;-91
2023/02/07 00:30:16;;;;;;;;;;;2.40;99.90;3.00;100654.00;;;;345779;28;83638;-91
2023/02/07 00:30:28;;;;;;;;;;;2.40;99.90;3.00;100655.00;;;;343019;28;89499;-91
2023/02/07 00:30:40;;;;;;;;;;;2.40;99.90;3.00;100665.00;;;;345952;28;83481;-91
2023/02/07 00:31:02;;;;;;;;;;;2.40;99.90;2.90;100664.00;;;;341605;28;88896;-91
2023/02/07 00:31:40;;;;;;;;;;;2.40;99.90;3.00;100666.00;;;;341869;28;83548;-91
2023/02/07 00:31:52;;;;;;;;;;;2.40;99.90;2.90;100661.00;;;;340352;28;91782;-91
2023/02/07 00:32:04;;;;;;;;;;;2.40;99.90;2.90;100657.00;;;;340651;28;83534;-91
2023/02/07 00:32:16;;;;;;;;;;;2.40;99.90;2.80;100663.00;;;;341333;28;89289;-91
2023/02/07 00:32:31;;;;;;;;;;;2.40;99.90;2.90;100659.00;;;;342072;28;83275;-91
2023/02/07 00:32:43;;;;;;;;;;;2.30;99.90;2.80;100663.00;;;;344040;28;87096;-90
2023/02/07 00:32:55;;;;;;;;;;;2.30;99.90;2.80;100657.00;;;;344745;28;83316;-91
2023/02/07 00:33:07;;;;;;;;;;;2.30;99.90;2.80;100662.00;;;;344511;28;87583;-92
2023/02/07 00:33:19;;;;;;;;;;;2.30;99.90;2.80;100654.00;;;;342222;28;82358;-91
2023/02/07 00:33:31;;;;;;;;;;;2.30;99.90;2.80;100656.00;;;;342972;28;89038;-91
2023/02/07 00:33:43;;;;;;;;;;;2.30;99.90;2.80;100656.00;;;;342129;28;83608;-91
2023/02/07 00:33:56;;;;;;;;;;;2.30;99.90;2.90;100653.00;;;;341119;28;90653;-92
2023/02/07 00:34:09;;;;;;;;;;;2.30;99.90;2.80;100653.00;;;;342040;28;83448;-90
2023/02/07 00:34:21;;;;;;;;;;;2.30;99.90;2.90;100655.00;;;;343015;28;88484;-91
2023/02/07 00:34:35;;;;;;;;;;;2.30;99.90;2.90;100648.00;;;;343327;28;83380;-91
2023/02/07 00:34:47;;;;;;;;;;;2.30;99.90;2.90;100652.00;;;;343861;28;86860;-92
2023/02/07 00:34:58;;;;;;;;;;;2.30;99.90;2.90;100652.00;;;;346187;28;83161;-91
2023/02/07 00:35:10;;;;;;;;;;;2.30;99.90;2.90;100656.00;;;;342926;28;90099;-91
2023/02/07 00:35:22;;;;;;;;;;;2.30;99.90;2.90;100652.00;;;;343495;28;83342;-91
2023/02/07 00:35:34;;;;;;;;;;;2.30;99.90;3.00;100653.00;;;;343956;28;89416;-91
2023/02/07 00:35:46;;;;;;;;;;;2.30;99.90;3.00;100648.00;;;;344641;28;83485;-91
2023/02/07 00:35:59;;;;;;;;;;;2.30;99.90;2.90;100653.00;;;;344477;28;86657;-91
2023/02/07 00:36:13;;;;;;;;;;;2.30;99.90;2.90;100652.00;;;;343120;28;83373;-91
2023/02/07 00:36:25;;;;;;;;;;;2.30;99.90;3.00;100642.00;;;;344474;28;90057;-91
2023/02/07 00:36:38;;;;;;;;;;;2.30;99.90;2.90;100647.00;;;;343372;28;82451;-91
2023/02/07 00:36:50;;;;;;;;;;;2.30;99.90;3.00;100645.00;;;;343120;28;86740;-91
2023/02/07 00:37:03;;;;;;;;;;;2.30;99.90;2.90;100650.00;;;;343551;28;83442;-92
2023/02/07 00:37:15;;;;;;;;;;;2.30;99.90;3.00;100652.00;;;;343007;28;88355;-91
2023/02/07 00:37:27;;;;;;;;;;;2.30;99.90;3.00;100647.00;;;;340625;28;83394;-91
2023/02/07 00:37:39;;;;;;;;;;;2.30;99.90;3.00;100646.00;;;;344345;28;88754;-91
2023/02/07 00:37:50;;;;;;;;;;;2.30;99.90;2.90;100648.00;;;;344733;28;82593;-92
2023/02/07 00:38:03;;;;;;;;;;;2.30;99.90;3.00;100646.00;;;;344500;28;88738;-91
2023/02/07 00:38:15;;;;;;;;;;;2.30;99.90;3.00;100655.00;;;;342022;28;83401;-91
2023/02/07 00:38:27;;;;;;;;;;;2.30;99.90;3.00;100656.00;;;;342800;28;88521;-91
2023/02/07 00:38:39;;;;;;;;;;;2.30;99.90;3.00;100653.00;;;;342144;28;83175;-91
2023/02/07 00:38:55;;;;;;;;;;;2.30;99.90;3.00;100650.00;;;;344108;28;89167;-91
2023/02/07 00:39:10;;;;;;;;;;;2.30;99.90;3.00;100644.00;;;;344828;28;83205;-91
2023/02/07 00:39:22;;;;;;;;;;;2.30;99.90;2.90;100644.00;;;;343064;28;88286;-91
2023/02/07 00:39:34;;;;;;;;;;;2.30;99.90;2.80;100640.00;;;;344563;28;82602;-91
2023/02/07 00:39:46;;;;;;;;;;;2.30;99.90;2.90;100644.00;;;;344308;28;89345;-91
2023/02/07 00:39:57;;;;;;;;;;;2.30;99.90;3.00;100651.00;;;;343177;28;82530;-91
2023/02/07 00:40:09;;;;;;;;;;;2.30;99.90;3.00;100646.00;;;;342463;28;88403;-90
2023/02/07 00:40:22;;;;;;;;;;;2.30;99.90;3.00;100655.00;;;;340883;28;82250;-91
2023/02/07 00:40:34;;;;;;;;;;;2.40;99.90;3.00;100647.00;;;;341658;28;89134;-91
2023/02/07 00:40:46;;;;;;;;;;;2.30;99.90;2.90;100655.00;;;;346204;28;82370;-91
2023/02/07 00:41:00;;;;;;;;;;;2.30;99.90;3.00;100648.00;;;;342627;28;88223;-91
2023/02/07 00:41:17;;;;;;;;;;;2.30;99.90;2.90;100652.00;;;;341975;28;82314;-91
2023/02/07 00:41:29;;;;;;;;;;;2.30;99.90;2.80;100655.00;;;;343055;28;89432;-91
2023/02/07 00:41:41;;;;;;;;;;;2.30;99.90;2.90;100640.00;;;;344517;28;83622;-92
2023/02/07 00:41:53;;;;;;;;;;;2.30;99.90;2.90;100653.00;;;;342924;28;90609;-90
2023/02/07 00:42:05;;;;;;;;;;;2.30;99.90;2.90;100654.00;;;;343462;28;83405;-91
2023/02/07 00:42:17;;;;;;;;;;;2.30;99.90;2.80;100647.00;;;;344302;28;89368;-91
2023/02/07 00:42:29;;;;;;;;;;;2.30;99.90;2.90;100644.00;;;;343380;28;83288;-91
2023/02/07 00:42:41;;;;;;;;;;;2.30;99.90;2.90;100644.00;;;;344485;28;87565;-91
2023/02/07 00:42:52;;;;;;;;;;;2.30;99.90;2.90;100657.00;;;;344760;28;83375;-91
2023/02/07 00:43:05;;;;;;;;;;;2.30;99.90;2.90;100651.00;;;;344291;28;90619;-91
2023/02/07 00:43:16;;;;;;;;;;;2.30;99.90;2.90;100654.00;;;;344856;28;82533;-91
2023/02/07 00:43:41;;;;;;;;;;;2.30;99.90;2.90;100653.00;;;;344162;28;89118;-92
2023/02/07 00:43:53;;;;;;;;;;;2.30;99.90;2.90;100654.00;;;;344901;28;83373;-90
2023/02/07 00:44:05;;;;;;;;;;;2.30;99.90;2.90;100643.00;;;;344021;28;89186;-91
2023/02/07 00:44:17;;;;;;;;;;;2.30;99.90;2.90;100640.00;;;;343154;28;83451;-91
2023/02/07 00:44:28;;;;;;;;;;;2.30;99.90;2.90;100654.00;;;;342017;28;88828;-91
2023/02/07 00:44:40;;;;;;;;;;;2.30;99.90;2.80;100653.00;;;;342855;28;83527;-91
2023/02/07 00:44:52;;;;;;;;;;;2.30;99.90;2.90;100644.00;;;;343031;28;87477;-91
2023/02/07 00:45:04;;;;;;;;;;;2.30;99.90;2.90;100650.00;;;;342067;28;82639;-91
2023/02/07 00:45:16;;;;;;;;;;;2.30;99.90;2.90;100648.00;;;;342800;28;88477;-91
2023/02/07 00:45:28;;;;;;;;;;;2.30;99.90;2.80;100648.00;;;;343467;28;82431;-91
2023/02/07 00:45:40;;;;;;;;;;;2.30;99.90;2.80;100649.00;;;;344302;28;89321;-91
2023/02/07 00:45:51;;;;;;;;;;;2.30;99.90;2.90;100654.00;;;;343532;28;82464;-91
2023/02/07 00:46:04;;;;;;;;;;;2.30;99.90;2.90;100655.00;;;;345697;28;90397;-91
2023/02/07 00:46:16;;;;;;;;;;;2.30;99.90;2.90;100654.00;;;;343455;28;82369;-91
2023/02/07 00:46:28;;;;;;;;;;;2.30;99.90;2.90;100652.00;;;;344069;28;89758;-91
2023/02/07 00:46:40;;;;;;;;;;;2.30;99.90;2.80;100651.00;;;;344884;28;82475;-91
2023/02/07 00:46:52;;;;;;;;;;;2.30;99.90;2.90;100654.00;;;;345473;28;89224;-91
2023/02/07 00:47:04;;;;;;;;;;;2.30;99.90;2.90;100650.00;;;;346209;28;82549;-91
2023/02/07 00:47:16;;;;;;;;;;;2.30;99.90;2.90;100655.00;;;;344359;28;89368;-91
2023/02/07 00:47:28;;;;;;;;;;;2.30;99.90;3.00;100661.00;;;;345911;28;83467;-91
2023/02/07 00:47:40;;;;;;;;;;;2.30;99.90;2.90;100658.00;;;;345791;28;87749;-91
2023/02/07 00:47:51;;;;;;;;;;;2.30;99.90;2.90;100657.00;;;;344446;28;83493;-91
2023/02/07 00:48:03;;;;;;;;;;;2.30;99.90;2.90;100654.00;;;;344247;28;90315;-91
2023/02/07 00:48:15;;;;;;;;;;;2.30;99.90;2.90;100657.00;;;;344789;28;83260;-91
2023/02/07 00:48:27;;;;;;;;;;;2.30;99.90;2.90;100655.00;;;;343073;28;88093;-91
2023/02/07 00:48:39;;;;;;;;;;;2.30;99.90;2.90;100655.00;;;;343271;28;83492;-91
2023/02/07 00:48:51;;;;;;;;;;;2.30;99.90;2.90;100658.00;;;;343033;28;87874;-92
2023/02/07 00:49:03;;;;;;;;;;;2.30;99.90;3.00;100655.00;;;;343215;28;82482;-92
2023/02/07 00:49:15;;;;;;;;;;;2.30;99.90;3.00;100655.00;;;;341784;28;87513;-91
2023/02/07 00:49:27;;;;;;;;;;;2.30;99.90;3.00;100656.00;;;;343233;28;83569;-92
2023/02/07 00:49:39;;;;;;;;;;;2.30;99.90;2.90;100665.00;;;;344518;28;87507;-91
2023/02/07 00:49:50;;;;;;;;;;;2.30;99.90;3.00;100668.00;;;;343186;28;82653;-92
2023/02/07 00:50:03;;;;;;;;;;;2.30;99.90;3.00;100661.00;;;;344142;28;91349;-91
2023/02/07 00:50:15;;;;;;;;;;;2.30;99.90;2.90;100664.00;;;;343247;28;83513;-91
2023/02/07 00:50:26;;;;;;;;;;;2.30;99.90;2.90;100667.00;;;;344045;28;90881;-92
2023/02/07 00:50:38;;;;;;;;;;;2.40;99.90;3.00;100669.00;;;;343263;28;83367;-91
2023/02/07 00:50:50;;;;;;;;;;;2.30;99.90;3.00;100661.00;;;;340365;28;89542;-91
2023/02/07 00:51:02;;;;;;;;;;;2.30;99.90;3.00;100657.00;;;;343133;28;82421;-91
2023/02/07 00:51:14;;;;;;;;;;;2.30;99.90;2.90;100663.00;;;;341669;28;89724;-91
2023/02/07 00:51:26;;;;;;;;;;;2.30;99.90;2.90;100659.00;;;;342218;28;82355;-92
2023/02/07 00:51:38;;;;;;;;;;;2.30;99.90;2.90;100655.00;;;;341503;28;89851;-92
2023/02/07 00:51:49;;;;;;;;;;;2.30;99.90;2.80;100666.00;;;;342891;28;82454;-90
2023/02/07 00:52:02;;;;;;;;;;;2.30;99.90;2.80;100656.00;;;;343090;28;89246;-91
2023/02/07 00:52:14;;;;;;;;;;;2.30;99.90;2.90;100657.00;;;;344846;28;83241;-91
2023/02/07 00:52:25;;;;;;;;;;;2.30;99.90;2.90;100652.00;;;;343148;28;87239;-92
2023/02/07 00:52:37;;;;;;;;;;;2.30;99.90;2.80;100660.00;;;;343359;28;83533;-91
2023/02/07 00:52:49;;;;;;;;;;;2.30;99.90;2.80;100656.00;;;;340367;28;89704;-91
2023/02/07 00:53:01;;;;;;;;;;;2.30;99.90;2.80;100655.00;;;;342176;28;82528;-92
2023/02/07 00:53:13;;;;;;;;;;;2.30;99.90;2.90;100660.00;;;;343070;28;89139;-91
2023/02/07 00:53:25;;;;;;;;;;;2.20;99.90;2.90;100655.00;;;;343350;28;83495;-92
2023/02/07 00:53:38;;;;;;;;;;;2.30;99.90;2.80;100660.00;;;;344112;28;89137;-92
2023/02/07 00:53:52;;;;;;;;;;;2.30;99.90;2.90;100661.00;;;;344944;28;82280;-91
2023/02/07 00:54:06;;;;;;;;;;;2.30;99.90;2.90;100663.00;;;;342573;28;92622;-91
2023/02/07 00:54:18;;;;;;;;;;;2.30;99.90;3.00;100662.00;;;;344721;28;83277;-91
2023/02/07 00:54:30;;;;;;;;;;;2.30;99.90;3.00;100660.00;;;;343087;28;89396;-92
2023/02/07 00:54:42;;;;;;;;;;;2.30;99.90;3.00;100660.00;;;;343223;28;83519;-92
2023/02/07 00:54:54;;;;;;;;;;;2.30;99.90;2.90;100662.00;;;;344056;28;89648;-91
2023/02/07 00:55:06;;;;;;;;;;;2.30;99.90;2.90;100664.00;;;;343331;28;82452;-91
2023/02/07 00:55:18;;;;;;;;;;;2.30;99.90;2.90;100658.00;;;;341715;28;88175;-92
2023/02/07 00:55:30;;;;;;;;;;;2.30;99.90;2.90;100656.00;;;;342086;28;82375;-92
2023/02/07 00:55:42;;;;;;;;;;;2.30;99.90;2.80;100657.00;;;;343018;28;88430;-92
2023/02/07 00:55:54;;;;;;;;;;;2.30;99.90;2.80;100654.00;;;;343165;28;82535;-92
2023/02/07 00:56:07;;;;;;;;;;;2.30;99.90;2.70;100655.00;;;;342982;28;89028;-92
2023/02/07 00:56:20;;;;;;;;;;;2.20;99.90;2.80;100655.00;;;;345610;28;84209;-91
2023/02/07 00:56:32;;;;;;;;;;;2.30;99.90;2.80;100660.00;;;;344374;28;89659;-91
2023/02/07 00:56:43;;;;;;;;;;;2.20;99.90;2.90;100659.00;;;;344949;28;82445;-91
2023/02/07 00:56:55;;;;;;;;;;;2.30;99.90;2.90;100660.00;;;;344183;28;90655;-91
2023/02/07 00:57:07;;;;;;;;;;;2.30;99.90;2.80;100654.00;;;;346414;28;83501;-91
2023/02/07 00:57:19;;;;;;;;;;;2.30;99.90;2.80;100656.00;;;;344585;28;88522;-91
2023/02/07 00:57:31;;;;;;;;;;;2.20;99.90;2.90;100643.00;;;;345016;28;83342;-91
2023/02/07 00:57:43;;;;;;;;;;;2.20;99.90;2.80;100656.00;;;;343040;28;90990;-91
2023/02/07 00:57:55;;;;;;;;;;;2.20;99.90;2.90;100654.00;;;;344952;28;82249;-90
2023/02/07 00:58:07;;;;;;;;;;;2.20;99.90;2.90;100657.00;;;;344343;28;91748;-91
2023/02/07 00:58:19;;;;;;;;;;;2.30;99.90;2.80;100644.00;;;;342395;28;83391;-91
2023/02/07 00:58:30;;;;;;;;;;;2.20;99.90;2.80;100653.00;;;;343289;28;88197;-91
2023/02/07 00:58:42;;;;;;;;;;;2.20;99.90;2.70;100647.00;;;;342076;28;83565;-91
2023/02/07 00:58:54;;;;;;;;;;;2.20;99.90;2.70;100644.00;;;;340304;28;89482;-91
2023/02/07 00:59:06;;;;;;;;;;;2.20;99.90;2.70;100638.00;;;;343426;28;82478;-92
2023/02/07 00:59:18;;;;;;;;;;;2.20;99.90;2.80;100648.00;;;;344447;28;87754;-91
2023/02/07 00:59:29;;;;;;;;;;;2.20;99.90;2.80;100639.00;;;;343284;28;82320;-90
2023/02/07 00:59:41;;;;;;;;;;;2.20;99.90;2.80;100648.00;;;;343238;28;88434;-91
2023/02/07 00:59:53;;;;;;;;;;;2.20;99.90;2.90;100652.00;;;;344754;28;83301;-91
2023/02/07 01:00:05;;;;;;;;;;;2.20;99.90;2.90;100645.00;;;;343029;28;91154;-91
2023/02/07 01:00:17;;;;;;;;;;;2.20;99.90;2.90;100646.00;;;;344554;28;84038;-91
2023/02/07 01:00:29;;;;;;;;;;;2.20;99.90;2.90;100648.00;;;;343240;28;88383;-91
2023/02/07 01:00:41;;;;;;;;;;;2.20;99.90;2.90;100648.00;;;;343693;28;83191;-91
2023/02/07 01:00:53;;;;;;;;;;;2.20;99.90;2.90;100644.00;;;;343013;28;89008;-91
2023/02/07 01:01:05;;;;;;;;;;;2.20;99.90;2.90;100647.00;;;;343336;28;83458;-92
2023/02/07 01:01:17;;;;;;;;;;;2.20;99.90;2.90;100641.00;;;;342730;28;87231;-91
2023/02/07 01:01:29;;;;;;;;;;;2.20;99.90;2.90;100634.00;;;;344564;28;82585;-90
2023/02/07 01:01:42;;;;;;;;;;;2.20;99.90;2.80;100637.00;;;;343147;28;88684;-90
2023/02/07 01:01:54;;;;;;;;;;;2.20;99.90;2.80;100639.00;;;;343729;28;83089;-91
2023/02/07 01:02:06;;;;;;;;;;;2.20;99.90;2.80;100639.00;;;;342752;28;90213;-91